메인 페이지
METAR-TAF:

METAR-TAF

공항 :

Casement Aerodrome

더블린, 아일랜드

위도: 53-18-06N, 경도: 6-27-04W, 고도: 97m

현재 날씨관측

예보는 1 시간 24분 전, 03:00시(UTC)에 발표되었습니다.
서남서3kt
온도 11°C
습도 100%
기압 1017 hPa
시정 10km 이상
고도 1100ft 상공 구름 보통
고도 1700ft 상공 구름 많음
고도 4000ft 상공 구름 많음

METAR: EIME 130300Z 25003KT 9999 SCT011 BKN017 BKN040 11/11 Q1017

시각: 05:24 (04:24 UTC)

예보

예보는 2 시간 24분 전, 02:00시(UTC)에 발표되었습니다.
예보 대상 시간: 13일 03시부터 13일 12시까지 (UTC)
서북서5kt
시정 10km 이상
고도 1000ft 상공 구름 보통
고도 5000ft 상공 구름 많음
일시적
13일 03시부터 13일 07시까지 (UTC)
고도 1000ft 상공 구름 많음
약한이슬비
확률 40% :
일시적
13일 03시부터 13일 07시까지 (UTC)
고도 700ft 상공 구름 많음

TAF: EIME 130200Z 1303/1312 30005KT 9999 SCT010 BKN050 TEMPO 1303/1307 -DZ BKN010 PROB40 TEMPO 1303/1307 BKN007

4,000개 이상의 공항 관측 자료 및 예보 (METAR 및 TAF 보고).

지도상에서 검색 가능한 기상관측소가 노란 점과 빨간 점으로 표시되어 있습니다.

기상관측소 명을 보려면 표시 위로 마우스를 이동하세요.

날씨 관측과 예보를 보려면 클릭하세요.

지도 변경 : 확대하려면 엑스 표시가 있는 녹색 버튼, 축소하려면 빼기 표시가 있는 녹색 버튼, 다음 페이지의 지도를 보려면 녹색 화살표를 클릭하세요.


METAR-TAF: